Time;durP1;ratioP1;P1;durP2;ratioP2;P2;SDS_P1;SDS_P2;PMS_P1;PMS_P2;Temp;Humidity;BMP_temperature;BMP_pressure;BME280_temperature;BME280_humidity;BME280_pressure;Samples;Min_cycle;Max_cycle;Signal;HPM_P1;HPM_P2
2022/06/14 00:02:24;;;;;;;;;;;13.10;99.90;;;;;;5072888;28;19920;-73
2022/06/14 00:04:51;;;;;;;;;;;13.00;99.90;;;;;;5073820;28;19998;-73
2022/06/14 00:07:19;;;;;;;;;;;13.10;99.90;;;;;;5074132;28;19966;-72
2022/06/14 00:09:46;;;;;;;;;;;13.00;99.90;;;;;;5073650;28;19924;-72
2022/06/14 00:12:13;;;;;;;;;;;13.00;99.90;;;;;;5073683;28;19978;-73
2022/06/14 00:14:40;;;;;;;;;;;13.00;99.90;;;;;;5073988;28;19928;-72
2022/06/14 00:17:07;;;;;;;;;;;12.80;99.90;;;;;;5073605;28;19932;-72
2022/06/14 00:19:34;;;;;;;;;;;12.80;99.90;;;;;;5073485;28;19928;-72
2022/06/14 00:22:02;;;;;;;;;;;12.70;99.90;;;;;;5073048;28;20304;-73
2022/06/14 00:24:30;;;;;;;;;;;12.90;99.90;;;;;;5073697;28;19924;-72
2022/06/14 00:26:57;;;;;;;;;;;12.90;99.90;;;;;;5073456;28;19924;-72
2022/06/14 00:29:24;;;;;;;;;;;12.80;99.90;;;;;;5073276;28;19931;-73
2022/06/14 00:31:50;;;;;;;;;;;12.80;99.90;;;;;;5073588;28;20180;-73
2022/06/14 00:34:17;;;;;;;;;;;12.80;99.90;;;;;;5073250;28;20369;-72
2022/06/14 00:36:51;;;;;;;;;;;12.70;99.90;;;;;;5073035;28;19925;-73
2022/06/14 00:39:17;;;;;;;;;;;12.70;99.90;;;;;;5073036;28;19929;-72
2022/06/14 00:41:46;;;;;;;;;;;12.90;99.90;;;;;;5073329;28;19925;-72
2022/06/14 00:44:14;;;;;;;;;;;12.80;99.90;;;;;;5073192;28;19925;-73
2022/06/14 00:46:44;;;;;;;;;;;12.60;99.90;;;;;;5072832;28;19932;-73
2022/06/14 00:49:15;;;;;;;;;;;12.50;99.90;;;;;;5072862;28;20003;-73
2022/06/14 00:51:45;;;;;;;;;;;12.60;99.90;;;;;;5072897;28;20351;-72
2022/06/14 00:54:14;;;;;;;;;;;12.50;99.90;;;;;;5072959;28;19994;-72
2022/06/14 00:56:43;;;;;;;;;;;12.40;99.90;;;;;;5072678;28;19931;-72
2022/06/14 00:59:15;;;;;;;;;;;12.50;99.90;;;;;;5072628;28;19928;-72
2022/06/14 01:01:43;;;;;;;;;;;12.40;99.90;;;;;;5072660;28;19983;-73
2022/06/14 01:04:12;;;;;;;;;;;12.30;99.90;;;;;;5072546;28;19925;-72
2022/06/14 01:06:43;;;;;;;;;;;12.20;99.90;;;;;;5072768;28;19929;-72
2022/06/14 01:09:11;;;;;;;;;;;12.10;99.90;;;;;;5072587;28;20099;-72
2022/06/14 01:11:40;;;;;;;;;;;12.10;99.90;;;;;;5072600;28;19925;-74
2022/06/14 01:14:08;;;;;;;;;;;12.10;99.90;;;;;;5072441;28;19932;-74
2022/06/14 01:16:37;;;;;;;;;;;12.10;99.90;;;;;;5072131;28;19924;-74
2022/06/14 01:19:06;;;;;;;;;;;12.00;99.90;;;;;;5072344;28;20014;-74
2022/06/14 01:21:32;;;;;;;;;;;12.00;99.90;;;;;;5072427;28;20282;-72
2022/06/14 01:24:01;;;;;;;;;;;11.90;99.90;;;;;;5072659;28;19924;-72
2022/06/14 01:26:28;;;;;;;;;;;12.00;99.90;;;;;;5071916;28;19943;-72
2022/06/14 01:28:57;;;;;;;;;;;11.90;99.90;;;;;;5072179;28;20626;-72
2022/06/14 01:31:24;;;;;;;;;;;12.00;99.90;;;;;;5072214;28;19978;-74
2022/06/14 01:33:54;;;;;;;;;;;12.00;99.90;;;;;;5072154;28;19931;-74
2022/06/14 01:36:24;;;;;;;;;;;12.10;99.90;;;;;;5071828;28;20408;-74
2022/06/14 01:38:51;;;;;;;;;;;12.00;99.90;;;;;;5072028;28;20270;-74
2022/06/14 01:41:27;;;;;;;;;;;11.80;99.90;;;;;;5071909;28;20364;-74
2022/06/14 01:44:05;;;;;;;;;;;11.80;99.90;;;;;;5072362;28;19928;-74
2022/06/14 01:46:37;;;;;;;;;;;11.80;99.90;;;;;;5071839;28;19931;-74
2022/06/14 01:52:02;;;;;;;;;;;11.80;99.90;;;;;;5071950;28;20426;-74
2022/06/14 01:54:32;;;;;;;;;;;11.70;99.90;;;;;;5072066;28;20178;-74
2022/06/14 01:57:04;;;;;;;;;;;11.70;99.90;;;;;;5071716;28;19924;-72
2022/06/14 01:59:37;;;;;;;;;;;11.60;99.90;;;;;;5071792;28;19928;-72
2022/06/14 02:02:07;;;;;;;;;;;11.60;99.90;;;;;;5072199;28;20388;-72
2022/06/14 02:04:39;;;;;;;;;;;11.60;99.90;;;;;;5071867;28;19931;-72
2022/06/14 02:07:11;;;;;;;;;;;11.70;99.90;;;;;;5072000;28;20290;-74
2022/06/14 02:09:42;;;;;;;;;;;11.80;99.90;;;;;;5071796;28;19928;-74
2022/06/14 02:12:14;;;;;;;;;;;11.70;99.90;;;;;;5071849;28;20351;-74
2022/06/14 02:14:45;;;;;;;;;;;11.90;99.90;;;;;;5071747;28;20332;-74
2022/06/14 02:17:13;;;;;;;;;;;11.80;99.90;;;;;;5071628;28;19925;-74
2022/06/14 02:19:43;;;;;;;;;;;11.80;99.90;;;;;;5071453;28;19931;-74
2022/06/14 02:22:11;;;;;;;;;;;11.80;99.90;;;;;;5071945;28;19924;-74
2022/06/14 02:24:42;;;;;;;;;;;11.80;99.90;;;;;;5071831;28;19929;-74
2022/06/14 02:27:12;;;;;;;;;;;11.70;99.90;;;;;;5071662;28;19990;-72
2022/06/14 02:29:43;;;;;;;;;;;11.60;99.90;;;;;;5071380;28;19928;-73
2022/06/14 02:32:12;;;;;;;;;;;11.60;99.90;;;;;;5071757;28;19924;-72
2022/06/14 02:34:42;;;;;;;;;;;11.60;99.90;;;;;;5071607;28;19924;-73
2022/06/14 02:37:10;;;;;;;;;;;11.60;99.90;;;;;;5071963;28;20335;-72
2022/06/14 02:39:39;;;;;;;;;;;11.60;99.90;;;;;;5071293;28;20432;-74
2022/06/14 02:42:07;;;;;;;;;;;11.50;99.90;;;;;;5071032;28;19925;-74
2022/06/14 02:44:37;;;;;;;;;;;11.30;99.90;;;;;;5072223;28;19986;-74
2022/06/14 02:47:08;;;;;;;;;;;11.10;99.90;;;;;;5075144;28;20343;-72
2022/06/14 02:49:37;;;;;;;;;;;11.00;99.90;;;;;;5075351;28;19925;-73
2022/06/14 02:52:05;;;;;;;;;;;10.90;99.90;;;;;;5075322;28;19984;-73
2022/06/14 02:54:34;;;;;;;;;;;11.10;99.90;;;;;;5075081;28;19932;-72
2022/06/14 02:57:03;;;;;;;;;;;11.20;99.90;;;;;;5075060;28;20375;-74
2022/06/14 02:59:31;;;;;;;;;;;11.20;99.90;;;;;;5074774;28;19928;-74
2022/06/14 03:02:00;;;;;;;;;;;11.00;99.90;;;;;;5075060;28;19924;-74
2022/06/14 03:04:31;;;;;;;;;;;10.80;99.90;;;;;;5075241;28;19935;-72
2022/06/14 03:07:01;;;;;;;;;;;10.80;99.90;;;;;;5074921;28;19925;-72
2022/06/14 03:09:31;;;;;;;;;;;10.80;99.90;;;;;;5075571;28;19997;-72
2022/06/14 03:12:01;;;;;;;;;;;10.70;99.90;;;;;;5074759;28;19928;-72
2022/06/14 03:14:30;;;;;;;;;;;10.70;99.90;;;;;;5075426;28;19932;-72
2022/06/14 03:17:02;;;;;;;;;;;10.70;99.90;;;;;;5074657;28;20202;-72
2022/06/14 03:19:36;;;;;;;;;;;10.70;99.90;;;;;;5075457;28;19956;-72
2022/06/14 03:22:06;;;;;;;;;;;10.70;99.90;;;;;;5075045;28;20458;-74
2022/06/14 03:24:36;;;;;;;;;;;10.80;99.90;;;;;;5074679;28;19924;-74
2022/06/14 03:27:07;;;;;;;;;;;10.70;99.90;;;;;;5074384;28;19924;-72
2022/06/14 03:29:39;;;;;;;;;;;10.90;99.90;;;;;;5074570;28;19924;-72
2022/06/14 03:32:08;;;;;;;;;;;10.80;99.90;;;;;;5074612;28;20002;-72
2022/06/14 03:34:41;;;;;;;;;;;10.50;99.90;;;;;;5074525;28;20289;-72
2022/06/14 03:37:08;;;;;;;;;;;10.50;99.90;;;;;;5074545;28;20343;-72
2022/06/14 03:39:36;;;;;;;;;;;10.50;99.90;;;;;;5074574;28;19928;-74
2022/06/14 03:42:04;;;;;;;;;;;10.70;99.90;;;;;;5074397;28;20369;-74
2022/06/14 03:44:31;;;;;;;;;;;10.80;99.90;;;;;;5074402;28;19928;-74
2022/06/14 03:47:16;;;;;;;;;;;10.70;99.90;;;;;;5074165;28;19928;-74
2022/06/14 03:49:46;;;;;;;;;;;10.60;99.90;;;;;;5074171;28;19998;-73
2022/06/14 03:52:19;;;;;;;;;;;10.70;99.90;;;;;;5074452;28;19924;-73
2022/06/14 03:54:50;;;;;;;;;;;10.70;99.90;;;;;;5074064;28;19971;-74
2022/06/14 03:57:26;;;;;;;;;;;10.70;99.90;;;;;;5072983;28;19925;-72
2022/06/14 04:00:00;;;;;;;;;;;10.60;99.90;;;;;;5073749;28;20356;-72
2022/06/14 04:05:23;;;;;;;;;;;10.70;99.90;;;;;;5074054;28;20411;-72
2022/06/14 04:07:52;;;;;;;;;;;10.60;99.90;;;;;;5073989;28;19929;-72
2022/06/14 04:10:31;;;;;;;;;;;10.50;99.90;;;;;;5073947;28;19975;-72
2022/06/14 04:13:01;;;;;;;;;;;10.80;99.90;;;;;;5073989;28;19928;-72
2022/06/14 04:15:32;;;;;;;;;;;11.00;99.90;;;;;;5073638;28;19954;-72
2022/06/14 04:18:34;;;;;;;;;;;11.00;99.90;;;;;;5073706;28;20023;-72
2022/06/14 04:20:56;;;;;;;;;;;11.00;99.90;;;;;;5073346;28;20128;-72
2022/06/14 04:23:27;;;;;;;;;;;10.80;99.90;;;;;;5073704;28;19954;-72
2022/06/14 04:25:57;;;;;;;;;;;10.90;99.90;;;;;;5073507;28;19924;-73
2022/06/14 04:28:28;;;;;;;;;;;11.00;99.90;;;;;;5073609;28;19924;-72
2022/06/14 04:30:57;;;;;;;;;;;11.00;99.90;;;;;;5073909;28;19967;-72
2022/06/14 04:33:27;;;;;;;;;;;11.00;99.90;;;;;;5073446;28;20383;-74
2022/06/14 04:35:56;;;;;;;;;;;11.00;99.90;;;;;;5073004;28;19924;-73
2022/06/14 04:38:26;;;;;;;;;;;11.20;99.90;;;;;;5073426;28;20353;-73
2022/06/14 04:40:55;;;;;;;;;;;11.10;99.90;;;;;;5073108;28;20376;-74
2022/06/14 04:43:25;;;;;;;;;;;11.20;99.90;;;;;;5073431;28;19924;-72
2022/06/14 04:45:56;;;;;;;;;;;11.10;99.90;;;;;;5072785;28;19925;-74
2022/06/14 04:48:27;;;;;;;;;;;11.20;99.90;;;;;;5073422;28;19935;-73
2022/06/14 04:50:58;;;;;;;;;;;11.40;99.90;;;;;;5072934;28;19929;-74
2022/06/14 04:53:28;;;;;;;;;;;11.30;99.90;;;;;;5073053;28;19924;-73
2022/06/14 04:55:57;;;;;;;;;;;11.40;99.90;;;;;;5072814;28;19925;-74
2022/06/14 04:58:26;;;;;;;;;;;11.40;99.90;;;;;;5073161;28;19928;-73
2022/06/14 05:00:54;;;;;;;;;;;11.60;99.90;;;;;;5072702;28;19967;-72
2022/06/14 05:03:24;;;;;;;;;;;11.60;99.90;;;;;;5072742;28;19925;-72
2022/06/14 05:05:54;;;;;;;;;;;11.60;99.90;;;;;;5072471;28;19928;-72
2022/06/14 05:08:26;;;;;;;;;;;11.60;99.90;;;;;;5072272;28;19978;-72
2022/06/14 05:10:55;;;;;;;;;;;11.60;99.90;;;;;;5072412;28;20444;-72
2022/06/14 05:13:25;;;;;;;;;;;11.60;99.90;;;;;;5072703;28;19987;-72
2022/06/14 05:15:54;;;;;;;;;;;11.80;99.90;;;;;;5072284;28;19978;-72
2022/06/14 05:18:25;;;;;;;;;;;11.90;99.90;;;;;;5072492;28;19928;-72
2022/06/14 05:20:56;;;;;;;;;;;12.00;99.90;;;;;;5072452;28;19978;-72
2022/06/14 05:23:26;;;;;;;;;;;12.10;99.90;;;;;;5072564;28;19974;-72
2022/06/14 05:26:00;;;;;;;;;;;12.10;99.90;;;;;;5072172;28;19932;-72
2022/06/14 05:28:32;;;;;;;;;;;12.10;99.90;;;;;;5072343;28;20011;-72
2022/06/14 05:31:05;;;;;;;;;;;12.20;99.90;;;;;;5072389;28;19928;-72
2022/06/14 05:33:37;;;;;;;;;;;12.40;99.90;;;;;;5072371;28;19924;-74
2022/06/14 05:36:08;;;;;;;;;;;12.40;99.90;;;;;;5072185;28;19931;-74
2022/06/14 05:38:39;;;;;;;;;;;12.40;99.90;;;;;;5072367;28;20368;-74
2022/06/14 05:41:08;;;;;;;;;;;12.40;99.90;;;;;;5072240;28;19970;-74
2022/06/14 05:43:39;;;;;;;;;;;12.50;99.90;;;;;;5074234;22;19924;-72
2022/06/14 05:46:08;;;;;;;;;;;12.60;99.90;;;;;;5052791;28;19925;-72
2022/06/14 05:48:39;;;;;;;;;;;12.80;99.90;;;;;;5052780;28;19931;-73
2022/06/14 05:51:07;;;;;;;;;;;12.70;99.90;;;;;;5071335;28;19925;-73
2022/06/14 05:53:37;;;;;;;;;;;12.70;99.90;;;;;;5073027;28;20354;-72
2022/06/14 05:56:11;;;;;;;;;;;12.90;99.90;;;;;;5072545;28;19928;-72
2022/06/14 05:58:41;;;;;;;;;;;12.90;99.90;;;;;;5072671;28;19932;-75
2022/06/14 06:01:11;;;;;;;;;;;13.00;99.90;;;;;;5072467;28;19925;-72
2022/06/14 06:03:42;;;;;;;;;;;13.10;99.90;;;;;;5073213;28;19974;-75
2022/06/14 06:06:10;;;;;;;;;;;13.20;99.90;;;;;;5073116;28;20292;-72
2022/06/14 06:08:38;;;;;;;;;;;13.30;99.90;;;;;;5072686;28;19974;-76
2022/06/14 06:11:08;;;;;;;;;;;13.50;99.90;;;;;;5072435;28;19997;-72
2022/06/14 06:13:37;;;;;;;;;;;13.60;99.90;;;;;;5064752;28;19970;-72
2022/06/14 06:16:05;;;;;;;;;;;13.60;99.90;;;;;;5072597;28;19948;-73
2022/06/14 06:18:35;;;;;;;;;;;13.70;99.90;;;;;;5072948;28;19925;-73
2022/06/14 06:21:04;;;;;;;;;;;13.80;99.90;;;;;;5076020;28;19924;-73
2022/06/14 06:23:34;;;;;;;;;;;13.90;99.90;;;;;;5077143;28;19924;-73
2022/06/14 06:26:01;;;;;;;;;;;14.00;99.90;;;;;;5076764;28;19928;-73
2022/06/14 06:28:30;;;;;;;;;;;14.10;99.90;;;;;;5076767;28;19925;-73
2022/06/14 06:30:59;;;;;;;;;;;14.10;99.90;;;;;;5076243;28;19924;-73
2022/06/14 06:33:27;;;;;;;;;;;14.30;99.90;;;;;;5076677;28;19970;-73
2022/06/14 06:36:00;;;;;;;;;;;14.50;99.90;;;;;;5076599;28;20388;-73
2022/06/14 06:38:31;;;;;;;;;;;14.50;99.90;;;;;;5076825;28;19932;-73
2022/06/14 06:43:48;;;;;;;;;;;14.70;99.90;;;;;;5076121;28;19928;-73
2022/06/14 06:46:15;;;;;;;;;;;14.90;99.90;;;;;;5076020;28;19947;-73
2022/06/14 06:48:44;;;;;;;;;;;14.90;99.90;;;;;;5076116;28;19928;-74
2022/06/14 06:51:13;;;;;;;;;;;15.30;99.90;;;;;;5076229;28;20312;-73
2022/06/14 06:53:42;;;;;;;;;;;15.50;99.90;;;;;;5076133;28;19974;-75
2022/06/14 06:56:10;;;;;;;;;;;15.70;99.90;;;;;;5075803;28;19924;-73
2022/06/14 06:58:38;;;;;;;;;;;15.70;99.90;;;;;;5068069;28;19928;-75
2022/06/14 07:01:08;;;;;;;;;;;16.00;99.90;;;;;;5075683;28;20388;-75
2022/06/14 07:03:40;;;;;;;;;;;16.10;99.90;;;;;;5076014;28;19939;-73
2022/06/14 07:06:08;;;;;;;;;;;16.20;99.90;;;;;;5075899;28;19924;-76
2022/06/14 07:08:39;;;;;;;;;;;16.10;99.90;;;;;;5076096;28;19928;-73
2022/06/14 07:11:07;;;;;;;;;;;16.00;99.90;;;;;;5075698;28;19924;-73
2022/06/14 07:13:39;;;;;;;;;;;16.30;99.90;;;;;;5075978;28;19924;-73
2022/06/14 07:16:09;;;;;;;;;;;16.40;99.90;;;;;;5075779;28;20121;-73
2022/06/14 07:18:41;;;;;;;;;;;16.50;99.90;;;;;;5075743;28;20011;-73
2022/06/14 07:21:10;;;;;;;;;;;16.60;99.90;;;;;;5075700;28;19924;-73
2022/06/14 07:23:41;;;;;;;;;;;16.80;99.90;;;;;;5075906;28;19970;-73
2022/06/14 07:26:12;;;;;;;;;;;16.80;99.90;;;;;;5075818;28;19929;-74
2022/06/14 07:28:44;;;;;;;;;;;16.80;99.90;;;;;;5075593;28;19931;-74
2022/06/14 07:31:17;;;;;;;;;;;16.80;99.90;;;;;;5075628;28;20106;-73
2022/06/14 07:33:44;;;;;;;;;;;17.50;98.80;;;;;;5075738;28;20457;-73
2022/06/14 07:36:13;;;;;;;;;;;17.60;98.30;;;;;;5075712;28;19928;-73
2022/06/14 07:38:48;;;;;;;;;;;17.70;98.00;;;;;;5075717;28;20399;-73
2022/06/14 07:41:16;;;;;;;;;;;17.90;98.10;;;;;;5075476;28;19931;-73
2022/06/14 07:43:46;;;;;;;;;;;18.00;97.30;;;;;;5075790;28;19931;-73
2022/06/14 07:46:15;;;;;;;;;;;18.10;95.70;;;;;;5075446;28;19928;-73
2022/06/14 07:48:46;;;;;;;;;;;17.80;96.90;;;;;;5079074;28;19946;-73
2022/06/14 07:51:19;;;;;;;;;;;18.10;95.90;;;;;;5081388;28;19924;-73
2022/06/14 07:53:49;;;;;;;;;;;18.00;95.60;;;;;;5082373;28;19924;-73
2022/06/14 07:56:17;;;;;;;;;;;18.00;95.70;;;;;;5080676;28;19924;-73
2022/06/14 07:58:45;;;;;;;;;;;18.20;96.20;;;;;;5084085;28;19925;-73
2022/06/14 08:01:16;;;;;;;;;;;18.60;95.70;;;;;;5081592;28;19994;-73
2022/06/14 08:03:47;;;;;;;;;;;19.00;95.40;;;;;;5080350;28;19924;-73
2022/06/14 08:06:15;;;;;;;;;;;19.40;94.30;;;;;;5082014;28;19931;-73
2022/06/14 08:08:44;;;;;;;;;;;19.90;93.60;;;;;;5082141;28;19924;-74
2022/06/14 08:11:15;;;;;;;;;;;20.20;93.40;;;;;;5082943;28;19929;-74
2022/06/14 08:13:45;;;;;;;;;;;20.10;92.70;;;;;;5082599;28;19949;-74
2022/06/14 08:16:13;;;;;;;;;;;19.40;94.00;;;;;;5081838;28;20277;-73
2022/06/14 08:18:46;;;;;;;;;;;20.00;93.40;;;;;;5080853;28;19932;-73
2022/06/14 08:21:17;;;;;;;;;;;20.70;93.00;;;;;;5085429;28;19925;-73
2022/06/14 08:23:46;;;;;;;;;;;20.90;92.70;;;;;;5086852;28;20441;-73
2022/06/14 08:26:15;;;;;;;;;;;20.70;92.80;;;;;;5083642;28;19924;-75
2022/06/14 08:28:46;;;;;;;;;;;20.20;92.50;;;;;;5084039;28;19924;-74
2022/06/14 08:31:16;;;;;;;;;;;19.90;92.70;;;;;;5083275;28;19962;-73
2022/06/14 08:33:46;;;;;;;;;;;20.30;92.20;;;;;;5082815;28;19928;-73
2022/06/14 08:36:15;;;;;;;;;;;20.20;92.40;;;;;;5083760;28;19924;-73
2022/06/14 08:38:47;;;;;;;;;;;20.30;92.40;;;;;;5085257;28;19925;-73
2022/06/14 08:41:22;;;;;;;;;;;20.90;92.30;;;;;;5082965;28;19993;-73
2022/06/14 08:43:51;;;;;;;;;;;21.40;91.50;;;;;;5080469;28;20380;-73
2022/06/14 08:46:20;;;;;;;;;;;21.60;91.40;;;;;;5078558;28;19931;-74
2022/06/14 08:49:02;;;;;;;;;;;22.10;91.10;;;;;;5075146;28;19928;-74
2022/06/14 08:51:32;;;;;;;;;;;22.20;90.80;;;;;;5073120;28;19925;-74
2022/06/14 08:54:14;;;;;;;;;;;22.80;89.60;;;;;;5073133;28;19932;-77
2022/06/14 08:56:56;;;;;;;;;;;23.00;89.00;;;;;;5072884;28;19935;-73
2022/06/14 08:59:36;;;;;;;;;;;21.90;88.40;;;;;;5062554;28;19924;-74
2022/06/14 09:02:18;;;;;;;;;;;22.80;88.70;;;;;;5072592;28;19962;-74
2022/06/14 09:05:03;;;;;;;;;;;24.20;85.00;;;;;;5072881;28;19924;-74
2022/06/14 09:07:47;;;;;;;;;;;24.00;84.10;;;;;;5072835;28;20027;-74
2022/06/14 09:10:28;;;;;;;;;;;24.40;84.30;;;;;;5048921;28;19932;-74
2022/06/14 09:13:17;;;;;;;;;;;26.00;80.20;;;;;;5072671;28;19932;-74
2022/06/14 09:15:59;;;;;;;;;;;25.90;80.20;;;;;;5066023;28;19928;-74
2022/06/14 09:18:36;;;;;;;;;;;26.10;79.10;;;;;;5072450;28;19977;-76
2022/06/14 09:21:13;;;;;;;;;;;26.50;76.60;;;;;;5072407;28;20380;-74
2022/06/14 09:23:45;;;;;;;;;;;26.00;72.60;;;;;;5072708;28;20015;-77
2022/06/14 09:26:22;;;;;;;;;;;27.00;75.70;;;;;;5072636;28;20015;-74
2022/06/14 09:29:04;;;;;;;;;;;26.30;76.30;;;;;;5072500;28;19929;-74
2022/06/14 09:31:38;;;;;;;;;;;25.30;78.00;;;;;;5070116;28;19928;-75
2022/06/14 09:34:23;;;;;;;;;;;25.10;78.40;;;;;;5072334;28;20354;-75
2022/06/14 09:37:18;;;;;;;;;;;26.20;76.00;;;;;;5072100;28;20380;-75
2022/06/14 09:40:01;;;;;;;;;;;27.00;76.30;;;;;;5072946;28;19978;-75
2022/06/14 09:42:43;;;;;;;;;;;27.80;74.40;;;;;;5072088;28;20384;-75
2022/06/14 09:45:28;;;;;;;;;;;27.60;75.60;;;;;;5069472;28;19924;-75
2022/06/14 09:48:22;;;;;;;;;;;27.20;75.10;;;;;;5072051;28;20338;-74
2022/06/14 09:51:18;;;;;;;;;;;27.40;74.60;;;;;;5032993;28;19986;-74
2022/06/14 09:54:04;;;;;;;;;;;28.20;73.90;;;;;;5065374;28;19924;-74
2022/06/14 09:56:49;;;;;;;;;;;28.50;72.90;;;;;;5071912;28;19932;-76
2022/06/14 09:59:36;;;;;;;;;;;29.40;73.20;;;;;;5072196;28;19925;-74
2022/06/14 10:02:08;;;;;;;;;;;28.90;71.70;;;;;;5071961;28;19930;-75
2022/06/14 10:05:02;;;;;;;;;;;28.80;71.70;;;;;;5071730;28;19924;-76
2022/06/14 10:07:45;;;;;;;;;;;29.10;71.50;;;;;;5046782;28;19924;-74
2022/06/14 10:10:39;;;;;;;;;;;28.60;70.40;;;;;;5071645;28;20358;-74
2022/06/14 10:13:27;;;;;;;;;;;27.50;71.30;;;;;;5043560;28;19974;-77
2022/06/14 10:15:57;;;;;;;;;;;29.00;69.30;;;;;;5066504;28;20019;-75
2022/06/14 10:18:32;;;;;;;;;;;29.50;68.50;;;;;;5071755;28;19978;-77
2022/06/14 10:21:01;;;;;;;;;;;29.80;69.90;;;;;;5071736;28;19925;-74
2022/06/14 10:23:46;;;;;;;;;;;29.10;68.80;;;;;;5071743;28;19978;-77
2022/06/14 10:29:14;;;;;;;;;;;29.30;69.30;;;;;;5071999;28;19928;-74
2022/06/14 10:31:50;;;;;;;;;;;29.80;67.30;;;;;;5071793;28;20476;-75
2022/06/14 10:34:22;;;;;;;;;;;29.70;68.70;;;;;;5071707;28;19970;-77
2022/06/14 10:36:59;;;;;;;;;;;30.20;68.80;;;;;;5071587;28;19978;-74
2022/06/14 10:39:43;;;;;;;;;;;30.30;67.80;;;;;;5071521;28;19924;-73
2022/06/14 10:42:14;;;;;;;;;;;29.30;66.40;;;;;;5071575;28;19979;-73
2022/06/14 10:44:56;;;;;;;;;;;29.40;68.60;;;;;;5071624;28;20355;-73
2022/06/14 10:47:29;;;;;;;;;;;30.10;67.40;;;;;;5071579;28;19935;-73
2022/06/14 10:50:11;;;;;;;;;;;30.30;68.00;;;;;;5071362;28;19924;-74
2022/06/14 10:52:44;;;;;;;;;;;30.90;66.60;;;;;;5061898;28;19924;-74
2022/06/14 10:55:19;;;;;;;;;;;30.50;67.40;;;;;;5071410;28;19940;-77
2022/06/14 10:57:56;;;;;;;;;;;31.50;66.50;;;;;;5071336;28;19946;-74
2022/06/14 11:00:30;;;;;;;;;;;31.50;65.10;;;;;;5071251;28;19924;-75
2022/06/14 11:03:05;;;;;;;;;;;29.60;68.40;;;;;;5071598;28;20033;-74
2022/06/14 11:05:35;;;;;;;;;;;31.00;67.20;;;;;;5071925;28;19970;-74
2022/06/14 11:08:08;;;;;;;;;;;31.70;65.10;;;;;;5075487;28;19925;-79
2022/06/14 11:10:42;;;;;;;;;;;31.40;65.30;;;;;;5074983;28;19982;-74
2022/06/14 11:13:11;;;;;;;;;;;31.40;64.60;;;;;;5074883;28;19978;-74
2022/06/14 11:15:43;;;;;;;;;;;29.40;67.70;;;;;;5074950;28;19929;-73
2022/06/14 11:18:23;;;;;;;;;;;29.30;68.60;;;;;;5074936;28;19924;-73
2022/06/14 11:20:53;;;;;;;;;;;30.40;65.20;;;;;;5074731;28;19929;-73
2022/06/14 11:23:24;;;;;;;;;;;29.40;66.30;;;;;;5074734;28;19924;-74
2022/06/14 11:25:54;;;;;;;;;;;29.60;67.40;;;;;;5074566;28;20001;-73
2022/06/14 11:28:23;;;;;;;;;;;29.70;68.10;;;;;;5074614;28;19978;-73
2022/06/14 11:30:56;;;;;;;;;;;29.30;67.70;;;;;;5074591;28;19994;-74
2022/06/14 11:33:42;;;;;;;;;;;30.00;67.70;;;;;;5074746;28;19936;-73
2022/06/14 11:36:23;;;;;;;;;;;29.30;68.00;;;;;;5074589;28;19968;-74
2022/06/14 11:39:02;;;;;;;;;;;28.40;69.00;;;;;;5074777;28;19924;-77
2022/06/14 11:41:30;;;;;;;;;;;28.10;70.30;;;;;;5074644;28;19993;-74
2022/06/14 11:44:05;;;;;;;;;;;30.50;67.60;;;;;;5195031;22;19928;-66
2022/06/14 11:46:38;;;;;;;;;;;31.50;65.20;;;;;;5115000;28;19930;-66
2022/06/14 11:49:08;;;;;;;;;;;30.40;64.20;;;;;;5114759;28;19962;-66
2022/06/14 11:51:41;;;;;;;;;;;30.40;63.80;;;;;;5114954;28;20376;-66
2022/06/14 11:54:15;;;;;;;;;;;30.50;65.20;;;;;;5114956;28;19961;-66
2022/06/14 11:56:54;;;;;;;;;;;31.10;64.10;;;;;;5114490;28;19928;-66
2022/06/14 11:59:37;;;;;;;;;;;29.40;65.60;;;;;;5114590;28;19976;-66
2022/06/14 12:02:14;;;;;;;;;;;27.60;67.70;;;;;;5114495;28;19924;-66
2022/06/14 12:04:47;;;;;;;;;;;29.10;67.10;;;;;;5114764;28;19981;-66
2022/06/14 12:07:17;;;;;;;;;;;29.30;67.60;;;;;;5114642;28;19924;-66
2022/06/14 12:09:59;;;;;;;;;;;28.90;68.70;;;;;;5114346;28;20387;-66
2022/06/14 12:12:31;;;;;;;;;;;31.40;66.20;;;;;;5112409;28;19946;-66
2022/06/14 12:15:00;;;;;;;;;;;28.50;67.00;;;;;;5114637;28;19973;-66
2022/06/14 12:17:30;;;;;;;;;;;28.30;67.20;;;;;;5113460;28;19931;-66
2022/06/14 12:20:02;;;;;;;;;;;28.30;67.60;;;;;;5114214;28;20409;-66
2022/06/14 12:22:34;;;;;;;;;;;30.60;65.30;;;;;;5114126;28;19941;-66
2022/06/14 12:27:44;;;;;;;;;;;32.10;63.40;;;;;;5073274;28;19959;-66
2022/06/14 12:30:12;;;;;;;;;;;30.00;65.00;;;;;;5114127;28;19927;-67
2022/06/14 12:32:43;;;;;;;;;;;31.00;64.80;;;;;;5114062;28;19923;-66
2022/06/14 12:35:13;;;;;;;;;;;32.20;62.80;;;;;;5114078;28;19967;-66
2022/06/14 12:37:43;;;;;;;;;;;32.70;63.10;;;;;;5114139;28;19971;-67
2022/06/14 12:40:14;;;;;;;;;;;33.20;62.10;;;;;;5095291;28;22119;-66
2022/06/14 12:42:42;;;;;;;;;;;32.30;60.50;;;;;;5113737;28;19927;-66
2022/06/14 12:45:12;;;;;;;;;;;32.70;62.10;;;;;;5113622;28;20284;-66
2022/06/14 12:47:45;;;;;;;;;;;33.00;62.10;;;;;;5114037;28;19930;-66
2022/06/14 12:50:17;;;;;;;;;;;33.30;61.50;;;;;;5113737;28;20440;-66
2022/06/14 12:52:46;;;;;;;;;;;33.00;61.80;;;;;;5113865;28;20053;-66
2022/06/14 12:55:18;;;;;;;;;;;32.50;61.90;;;;;;5113439;28;20311;-66
2022/06/14 12:58:00;;;;;;;;;;;33.00;60.10;;;;;;5113440;28;20352;-66
2022/06/14 13:00:30;;;;;;;;;;;33.30;60.60;;;;;;5113657;28;19924;-66
2022/06/14 13:03:00;;;;;;;;;;;31.70;62.10;;;;;;5113477;28;19924;-67
2022/06/14 13:05:29;;;;;;;;;;;32.40;61.50;;;;;;5113409;28;19984;-66
2022/06/14 13:08:05;;;;;;;;;;;34.40;59.60;;;;;;5113351;28;20296;-67
2022/06/14 13:10:39;;;;;;;;;;;33.50;59.50;;;;;;5113241;28;19924;-68
2022/06/14 13:13:19;;;;;;;;;;;33.90;58.80;;;;;;5113320;28;19924;-69
2022/06/14 13:15:51;;;;;;;;;;;33.80;59.40;;;;;;5113207;28;19924;-69
2022/06/14 13:18:24;;;;;;;;;;;33.40;59.70;;;;;;5113283;28;19944;-67
2022/06/14 13:20:55;;;;;;;;;;;30.80;62.20;;;;;;5113213;28;19927;-67
2022/06/14 13:23:35;;;;;;;;;;;31.70;61.20;;;;;;5113033;28;19935;-67
2022/06/14 13:26:11;;;;;;;;;;;31.20;61.50;;;;;;5112950;28;19927;-67
2022/06/14 13:28:47;;;;;;;;;;;31.50;62.30;;;;;;5112648;28;19924;-67
2022/06/14 13:31:33;;;;;;;;;;;30.60;62.90;;;;;;5112774;28;19931;-67
2022/06/14 13:34:04;;;;;;;;;;;29.80;63.60;;;;;;5112973;28;19931;-69
2022/06/14 13:36:36;;;;;;;;;;;30.60;62.90;;;;;;5113074;28;19923;-69
2022/06/14 13:39:11;;;;;;;;;;;30.10;62.20;;;;;;5112666;28;20353;-69
2022/06/14 13:41:41;;;;;;;;;;;28.60;65.10;;;;;;5113058;28;19931;-69
2022/06/14 13:44:10;;;;;;;;;;;29.50;64.80;;;;;;5112716;28;19931;-69
2022/06/14 13:46:41;;;;;;;;;;;29.70;64.00;;;;;;5112520;28;19924;-69
2022/06/14 13:49:15;;;;;;;;;;;30.20;62.10;;;;;;5112787;28;19931;-69
2022/06/14 13:51:47;;;;;;;;;;;28.90;65.00;;;;;;5112599;28;19928;-69
2022/06/14 13:54:15;;;;;;;;;;;29.10;64.40;;;;;;5112422;28;19927;-67
2022/06/14 13:56:46;;;;;;;;;;;30.30;64.00;;;;;;5112360;28;19924;-67
2022/06/14 13:59:15;;;;;;;;;;;29.40;64.20;;;;;;5112344;28;19924;-67
2022/06/14 14:01:44;;;;;;;;;;;31.20;64.20;;;;;;5112553;28;20395;-67
2022/06/14 14:04:14;;;;;;;;;;;31.80;61.10;;;;;;5112362;28;19924;-67
2022/06/14 14:06:45;;;;;;;;;;;31.20;60.80;;;;;;5112035;28;19989;-67
2022/06/14 14:09:18;;;;;;;;;;;31.20;62.40;;;;;;5112282;28;20002;-67
2022/06/14 14:11:55;;;;;;;;;;;31.70;62.70;;;;;;5112337;28;19931;-67
2022/06/14 14:14:28;;;;;;;;;;;33.00;61.30;;;;;;5112771;28;20368;-67
2022/06/14 14:17:11;;;;;;;;;;;30.80;62.30;;;;;;5111863;28;19979;-67
2022/06/14 14:19:43;;;;;;;;;;;31.80;61.30;;;;;;5112347;28;20379;-67
2022/06/14 14:22:12;;;;;;;;;;;31.10;61.40;;;;;;5112161;28;19997;-67
2022/06/14 14:24:44;;;;;;;;;;;29.60;63.20;;;;;;5112333;28;19928;-67
2022/06/14 14:27:20;;;;;;;;;;;29.80;64.50;;;;;;5112015;28;19967;-67
2022/06/14 14:29:50;;;;;;;;;;;31.40;62.50;;;;;;5111993;28;19977;-67
2022/06/14 14:32:20;;;;;;;;;;;32.60;61.00;;;;;;5111992;28;19943;-67
2022/06/14 14:34:49;;;;;;;;;;;32.20;61.00;;;;;;5111756;28;19923;-67
2022/06/14 14:37:19;;;;;;;;;;;32.40;60.70;;;;;;5112022;28;20337;-67
2022/06/14 14:40:04;;;;;;;;;;;32.90;61.00;;;;;;5111783;28;19923;-67
2022/06/14 14:42:55;;;;;;;;;;;33.00;59.90;;;;;;5115624;28;19977;-68
2022/06/14 14:45:26;;;;;;;;;;;30.50;61.60;;;;;;5099996;28;20291;-67
2022/06/14 14:47:56;;;;;;;;;;;30.10;63.10;;;;;;5116050;28;19931;-67
2022/06/14 14:50:31;;;;;;;;;;;28.90;63.90;;;;;;5116076;28;20387;-69
2022/06/14 14:52:59;;;;;;;;;;;28.40;65.20;;;;;;5116070;28;19924;-69
2022/06/14 14:55:33;;;;;;;;;;;28.50;66.00;;;;;;5115807;28;19928;-69
2022/06/14 14:58:04;;;;;;;;;;;27.70;66.00;;;;;;5116102;28;19928;-69
2022/06/14 15:06:06;;;;;;;;;;;30.80;63.40;;;;;;5115888;28;19980;-69